createdAt,value
2022-11-17T06:41:21.543Z,47.58
2022-11-17T06:41:36.568Z,47.34
2022-11-17T06:41:51.487Z,46.32
2022-11-17T06:42:06.485Z,45.45
2022-11-17T06:42:21.472Z,45.45
2022-11-17T06:42:36.465Z,45.21
2022-11-17T06:42:51.443Z,46.06
2022-11-17T06:43:06.465Z,44.75
2022-11-17T06:43:21.483Z,47.51
2022-11-17T06:43:36.747Z,53.62
2022-11-17T06:43:51.487Z,51.28
2022-11-17T06:44:06.497Z,45.89
2022-11-17T06:46:48.968Z,41.58
2022-11-17T06:47:01.035Z,41.55
2022-11-17T06:47:16.045Z,41.78
2022-11-17T06:47:31.031Z,41.96
2022-11-17T06:47:46.041Z,41.76
2022-11-17T06:48:01.031Z,41.10
2022-11-17T06:48:15.996Z,41.22
2022-11-17T06:48:31.031Z,41.32
2022-11-17T06:48:46.011Z,41.47
2022-11-17T06:49:01.031Z,40.53
2022-11-17T06:49:16.005Z,40.81
2022-11-17T06:49:31.006Z,40.99
2022-11-17T06:49:46.035Z,40.99
2022-11-17T06:50:01.007Z,40.74
2022-11-17T06:50:16.112Z,40.71
2022-11-17T06:50:30.996Z,40.50
2022-11-17T06:50:45.977Z,40.24
2022-11-17T06:51:01.033Z,40.38
2022-11-17T06:51:16.031Z,40.50
2022-11-17T06:51:31.123Z,40.11
2022-11-17T06:51:45.994Z,40.26
2022-11-17T06:52:01.036Z,39.97
2022-11-17T06:52:15.991Z,39.87
2022-11-17T06:52:31.096Z,39.53
2022-11-17T06:52:46.033Z,39.00
2022-11-17T06:53:01.071Z,38.96
2022-11-17T06:53:16.043Z,38.45
2022-11-17T06:53:31.033Z,38.26
2022-11-17T06:53:45.998Z,37.38
2022-11-17T06:54:01.038Z,37.33
2022-11-17T06:54:16.048Z,36.14
2022-11-17T06:54:31.050Z,36.73
2022-11-17T06:54:46.032Z,36.38
2022-11-17T06:55:01.055Z,36.36
2022-11-17T06:55:16.009Z,36.10
2022-11-17T06:55:31.010Z,36.02
2022-11-17T06:55:46.003Z,35.83
2022-11-17T06:56:01.023Z,36.08
2022-11-17T06:56:15.999Z,35.83
2022-11-17T06:56:31.028Z,33.83
2022-11-17T06:56:46.027Z,34.25
2022-11-17T06:57:00.988Z,34.52
2022-11-17T06:57:16.033Z,34.60
2022-11-17T06:57:30.966Z,34.44
2022-11-17T06:57:51.847Z,33.60
2022-11-17T06:58:02.001Z,32.99
2022-11-17T06:58:15.972Z,32.96
2022-11-17T06:58:30.958Z,32.92
2022-11-17T06:58:46.012Z,31.86
2022-11-17T06:59:01.060Z,30.13
2022-11-17T06:59:16.052Z,29.65
2022-11-17T06:59:31.000Z,29.86
2022-11-17T06:59:46.011Z,30.83
2022-11-17T07:00:00.938Z,31.36
2022-11-17T07:00:15.992Z,31.74
2022-11-17T07:00:31.173Z,31.82
2022-11-17T07:00:46.077Z,32.09
2022-11-17T07:01:00.992Z,32.36
2022-11-17T07:01:16.052Z,32.58
2022-11-17T07:01:30.980Z,32.70
2022-11-17T07:01:45.991Z,32.77
2022-11-17T07:02:00.947Z,32.80
2022-11-17T07:02:15.970Z,33.01
2022-11-17T07:02:30.970Z,33.12
2022-11-17T07:02:45.958Z,33.28
2022-11-17T07:03:00.985Z,33.35
2022-11-17T07:03:15.947Z,33.36
2022-11-17T07:03:30.970Z,33.52
2022-11-17T07:03:45.968Z,33.29
2022-11-17T07:04:00.949Z,33.49
2022-11-17T07:04:15.934Z,33.56
2022-11-17T07:04:30.940Z,33.52
2022-11-17T07:04:45.978Z,33.55
2022-11-17T07:05:00.948Z,33.57
2022-11-17T07:05:15.964Z,33.54
2022-11-17T07:05:30.955Z,33.63
2022-11-17T07:05:45.958Z,33.65
2022-11-17T07:06:00.923Z,33.69
2022-11-17T07:06:15.957Z,33.37
2022-11-17T07:06:30.954Z,33.61
2022-11-17T07:06:45.963Z,33.69
2022-11-17T07:07:00.989Z,33.73
2022-11-17T07:07:15.961Z,33.87
2022-11-17T07:07:30.989Z,33.93
2022-11-17T07:07:45.944Z,33.85
2022-11-17T07:08:00.925Z,33.81
2022-11-17T07:08:15.944Z,33.92
2022-11-17T07:08:30.953Z,33.81
2022-11-17T07:08:45.945Z,33.48
2022-11-17T07:09:00.910Z,33.65
2022-11-17T07:09:15.942Z,33.83
2022-11-17T07:09:30.920Z,33.88
2022-11-17T07:09:45.948Z,33.89
2022-11-17T07:10:00.935Z,33.81
2022-11-17T07:10:15.917Z,33.97
2022-11-17T07:10:30.916Z,33.86
2022-11-17T07:10:49.230Z,34.02
2022-11-17T07:11:00.901Z,33.96
2022-11-17T07:11:15.925Z,34.09
2022-11-17T07:11:30.933Z,34.15
2022-11-17T07:11:45.941Z,34.17
2022-11-17T07:12:00.902Z,34.13
2022-11-17T07:12:15.915Z,34.15
2022-11-17T07:12:30.899Z,34.18
2022-11-17T07:12:45.889Z,34.18
2022-11-17T07:13:00.922Z,34.23
2022-11-17T07:13:15.936Z,34.18
2022-11-17T07:13:30.888Z,34.21
2022-11-17T07:13:45.915Z,34.18
2022-11-17T07:14:00.903Z,34.08
2022-11-17T07:14:15.893Z,34.09
2022-11-17T07:14:30.928Z,34.17
2022-11-17T07:14:45.917Z,34.12
2022-11-17T07:15:00.887Z,34.21
2022-11-17T07:15:15.929Z,34.24
2022-11-17T07:15:30.858Z,34.27
2022-11-17T07:15:45.856Z,34.26
2022-11-17T07:16:00.907Z,34.26
2022-11-17T07:16:21.701Z,34.22
2022-11-17T07:16:31.868Z,34.10
2022-11-17T07:16:45.877Z,34.18
2022-11-17T07:17:00.898Z,34.22
2022-11-17T07:17:15.900Z,34.36
2022-11-17T07:17:30.877Z,34.41
2022-11-17T07:17:45.833Z,34.10
2022-11-17T07:18:00.884Z,34.23
2022-11-17T07:18:15.883Z,33.67
2022-11-17T07:18:30.867Z,33.84
2022-11-17T07:18:45.870Z,33.91
2022-11-17T07:19:00.883Z,33.96
2022-11-17T07:19:15.864Z,33.95
2022-11-17T07:19:30.839Z,34.25
2022-11-17T07:19:45.884Z,34.28
2022-11-17T07:20:00.858Z,34.35
2022-11-17T07:20:15.875Z,34.42
2022-11-17T07:20:30.883Z,34.37
2022-11-17T07:20:45.871Z,34.29
2022-11-17T07:21:00.839Z,33.73
2022-11-17T07:21:15.868Z,33.93
2022-11-17T07:21:30.812Z,34.14
2022-11-17T07:21:45.834Z,34.27
2022-11-17T07:22:00.851Z,34.35
2022-11-17T07:22:15.854Z,34.15
2022-11-17T07:22:30.922Z,34.21
2022-11-17T07:22:45.867Z,34.26
2022-11-17T07:23:00.853Z,34.21
2022-11-17T07:23:15.828Z,34.24
2022-11-17T07:23:30.836Z,34.32
2022-11-17T07:23:45.935Z,34.21
2022-11-17T07:24:00.823Z,34.27
2022-11-17T07:24:15.881Z,33.98
2022-11-17T07:24:30.833Z,34.09
2022-11-17T07:24:45.851Z,33.78
2022-11-17T07:25:00.828Z,33.97
2022-11-17T07:25:21.070Z,33.97
2022-11-17T07:25:31.880Z,34.05
2022-11-17T07:25:45.824Z,33.97
2022-11-17T07:26:00.819Z,34.01
2022-11-17T07:26:15.807Z,33.91
2022-11-17T07:26:30.829Z,33.87
2022-11-17T07:26:45.838Z,33.86
2022-11-17T07:27:00.849Z,33.72
2022-11-17T07:27:15.840Z,33.80
2022-11-17T07:27:30.813Z,33.65
2022-11-17T07:27:45.844Z,33.65
2022-11-17T07:28:00.879Z,33.64
2022-11-17T07:28:15.823Z,33.67
2022-11-17T07:28:30.812Z,33.66
2022-11-17T07:28:45.831Z,34.47
2022-11-17T07:29:00.783Z,35.45
2022-11-17T07:29:15.761Z,35.03
2022-11-17T07:29:30.798Z,34.56
2022-11-17T07:29:45.835Z,33.58
2022-11-17T07:30:00.808Z,33.82
2022-11-17T07:30:15.818Z,33.61
2022-11-17T07:30:30.798Z,33.68
2022-11-17T07:30:45.815Z,33.57
2022-11-17T07:31:00.811Z,33.51
2022-11-17T07:31:15.814Z,33.27
2022-11-17T07:31:30.801Z,33.27
2022-11-17T07:31:45.831Z,33.05
2022-11-17T07:32:00.772Z,31.69
2022-11-17T07:32:15.798Z,31.09
2022-11-17T07:32:30.807Z,34.57
2022-11-17T07:32:48.440Z,34.30
2022-11-17T07:33:01.798Z,32.26
2022-11-17T07:33:15.788Z,32.47
2022-11-17T07:33:30.812Z,32.74
2022-11-17T07:33:45.829Z,31.95
2022-11-17T07:34:00.808Z,31.33
2022-11-17T07:34:15.799Z,31.86
2022-11-17T07:34:30.789Z,31.41
2022-11-17T07:34:45.773Z,32.91
2022-11-17T07:35:00.757Z,31.65
2022-11-17T07:35:15.773Z,31.55
2022-11-17T07:35:30.768Z,31.27
2022-11-17T07:35:45.794Z,41.33
2022-11-17T07:36:00.758Z,40.42
2022-11-17T07:36:15.788Z,63.76
2022-11-17T07:36:30.733Z,41.93
2022-11-17T07:36:45.758Z,32.38
2022-11-17T07:37:00.743Z,31.38
2022-11-17T07:37:15.793Z,32.73
2022-11-17T07:37:30.726Z,32.10
2022-11-17T07:37:45.774Z,31.57
2022-11-17T07:38:00.769Z,32.70
2022-11-17T07:38:15.748Z,34.74
2022-11-17T07:38:30.767Z,33.00
2022-11-17T07:38:45.753Z,31.93
2022-11-17T07:39:00.713Z,32.62
2022-11-17T07:39:21.024Z,33.91
2022-11-17T07:39:31.750Z,34.33
2022-11-17T07:39:45.747Z,34.55
2022-11-17T07:40:00.727Z,34.73
2022-11-17T07:40:15.787Z,34.81
2022-11-17T07:40:30.708Z,34.93
2022-11-17T07:40:45.768Z,35.08
2022-11-17T07:41:00.738Z,35.24
2022-11-17T07:41:15.725Z,35.34
2022-11-17T07:41:30.727Z,35.32
2022-11-17T07:41:45.748Z,35.39
2022-11-17T07:42:00.747Z,35.41
2022-11-17T07:42:15.782Z,35.43
2022-11-17T07:42:30.711Z,35.49
2022-11-17T07:42:45.703Z,34.16
2022-11-17T07:43:00.702Z,32.73
2022-11-17T07:43:15.753Z,32.28
2022-11-17T07:43:30.708Z,32.03
2022-11-17T07:43:45.712Z,31.18
2022-11-17T07:44:00.693Z,31.34
2022-11-17T07:44:15.701Z,31.08
2022-11-17T07:44:30.751Z,31.12
2022-11-17T07:44:45.730Z,31.47
2022-11-17T07:45:00.732Z,31.38
2022-11-17T07:45:15.726Z,30.58
2022-11-17T07:45:32.239Z,29.38
2022-11-17T07:45:45.712Z,29.84
2022-11-17T07:46:00.719Z,29.35
2022-11-17T07:46:15.692Z,29.28
2022-11-17T07:46:30.720Z,29.18
2022-11-17T07:46:45.698Z,29.52
2022-11-17T07:47:00.695Z,29.80
2022-11-17T07:47:15.708Z,29.67
2022-11-17T07:47:30.678Z,29.85
2022-11-17T07:47:45.707Z,30.15
2022-11-17T07:48:00.658Z,30.06
2022-11-17T07:48:15.723Z,29.09
2022-11-17T07:48:30.642Z,28.80
2022-11-17T07:48:45.731Z,28.56
2022-11-17T07:49:00.712Z,28.56
2022-11-17T07:49:15.719Z,28.68
2022-11-17T07:49:30.682Z,29.07
2022-11-17T07:49:45.697Z,28.90
2022-11-17T07:50:00.664Z,29.52
2022-11-17T07:50:15.694Z,29.95
2022-11-17T07:50:30.671Z,30.26
2022-11-17T07:50:45.712Z,30.63
2022-11-17T07:51:00.700Z,30.96
2022-11-17T07:51:15.657Z,31.23
2022-11-17T07:51:30.738Z,31.45
2022-11-17T07:51:45.642Z,31.72
2022-11-17T07:52:00.669Z,31.99
2022-11-17T07:52:15.670Z,32.08
2022-11-17T07:52:30.673Z,32.28
2022-11-17T07:52:45.650Z,32.63
2022-11-17T07:53:00.754Z,32.55
2022-11-17T07:53:15.693Z,32.80
2022-11-17T07:53:30.658Z,33.06
2022-11-17T07:53:45.720Z,33.06
2022-11-17T07:54:00.688Z,33.08
2022-11-17T07:54:15.693Z,33.26
2022-11-17T07:54:30.664Z,33.39
2022-11-17T07:54:45.683Z,33.35
2022-11-17T07:55:00.665Z,33.33
2022-11-17T07:55:15.645Z,33.34
2022-11-17T07:55:30.669Z,33.37
2022-11-17T07:55:45.683Z,33.47
2022-11-17T07:56:00.713Z,33.43
2022-11-17T07:56:15.690Z,33.40
2022-11-17T07:56:30.659Z,33.42
2022-11-17T07:56:45.645Z,33.45
2022-11-17T07:57:00.634Z,33.49
2022-11-17T07:57:15.638Z,33.47
2022-11-17T07:57:30.603Z,33.53
2022-11-17T07:57:45.648Z,33.54
2022-11-17T07:58:00.636Z,33.61
2022-11-17T07:58:15.627Z,33.59
2022-11-17T07:58:30.643Z,33.64
2022-11-17T07:58:45.648Z,33.65
2022-11-17T07:59:00.655Z,33.64
2022-11-17T07:59:21.020Z,33.67
2022-11-17T07:59:31.638Z,33.65
2022-11-17T07:59:45.626Z,33.65
2022-11-17T08:00:00.623Z,33.67
2022-11-17T08:00:15.647Z,33.67
2022-11-17T08:00:30.712Z,33.71
2022-11-17T08:00:45.655Z,33.70
2022-11-17T08:01:00.719Z,33.67
2022-11-17T08:01:15.803Z,33.66
2022-11-17T08:01:30.694Z,33.65
2022-11-17T08:01:45.572Z,33.61
2022-11-17T08:02:00.615Z,33.66
2022-11-17T08:02:15.617Z,33.58
2022-11-17T08:02:30.607Z,33.58
2022-11-17T08:02:45.602Z,33.54
2022-11-17T08:03:00.637Z,33.54
2022-11-17T08:03:15.679Z,33.54
2022-11-17T08:03:30.728Z,33.54
2022-11-17T08:03:45.813Z,33.51
2022-11-17T08:04:00.771Z,33.57
2022-11-17T08:04:15.924Z,33.53
2022-11-17T08:04:30.693Z,33.59
2022-11-17T08:04:46.220Z,33.57
2022-11-17T08:05:00.592Z,33.55
2022-11-17T08:05:15.598Z,33.50
2022-11-17T08:05:34.797Z,33.54
2022-11-17T08:05:45.652Z,33.51
2022-11-17T08:06:00.743Z,33.51
2022-11-17T08:06:15.574Z,33.50
2022-11-17T08:06:30.602Z,33.51
2022-11-17T08:06:45.672Z,33.45
2022-11-17T08:07:00.721Z,33.48
2022-11-17T08:07:15.795Z,33.44
2022-11-17T08:07:30.888Z,33.43
2022-11-17T08:07:45.740Z,33.46
2022-11-17T08:08:00.608Z,33.49
2022-11-17T08:08:15.640Z,33.46
2022-11-17T08:08:31.095Z,33.44
2022-11-17T08:08:45.607Z,33.42
2022-11-17T08:09:02.595Z,33.39
2022-11-17T08:09:15.603Z,33.45
2022-11-17T08:09:30.599Z,33.35
2022-11-17T08:09:46.537Z,33.34
2022-11-17T08:10:00.571Z,33.35
2022-11-17T08:10:15.587Z,33.35
2022-11-17T08:10:30.532Z,33.28
2022-11-17T08:10:45.577Z,33.31
2022-11-17T08:11:00.578Z,33.29
2022-11-17T08:11:16.726Z,33.27
2022-11-17T08:11:30.553Z,33.28
2022-11-17T08:11:45.555Z,33.28
2022-11-17T08:12:00.562Z,33.24
2022-11-17T08:12:15.538Z,33.25
2022-11-17T08:12:30.621Z,33.25
2022-11-17T08:12:45.612Z,33.22
2022-11-17T08:13:00.556Z,33.24
2022-11-17T08:13:15.569Z,33.25
2022-11-17T08:13:30.562Z,33.22
2022-11-17T08:13:45.510Z,33.25
2022-11-17T08:14:00.562Z,33.26
2022-11-17T08:14:15.566Z,33.26
2022-11-17T08:14:31.967Z,33.23
2022-11-17T08:14:45.755Z,33.23
2022-11-17T08:15:00.581Z,33.20
2022-11-17T08:15:15.853Z,33.23
2022-11-17T08:15:31.005Z,33.23
2022-11-17T08:15:45.553Z,33.24
2022-11-17T08:16:04.985Z,33.22
2022-11-17T08:16:16.697Z,33.20
2022-11-17T08:16:31.552Z,33.25
2022-11-17T08:16:45.540Z,33.23
2022-11-17T08:17:00.542Z,33.23
2022-11-17T08:17:15.532Z,33.22
2022-11-17T08:17:30.554Z,33.20
2022-11-17T08:17:45.558Z,33.23
2022-11-17T08:18:00.523Z,33.22
2022-11-17T08:18:15.531Z,33.22
2022-11-17T08:18:30.532Z,33.22
2022-11-17T08:18:51.825Z,33.23
2022-11-17T08:19:01.719Z,33.25
2022-11-17T08:19:16.942Z,33.26
2022-11-17T08:19:30.507Z,33.24
2022-11-17T08:19:45.660Z,33.26
2022-11-17T08:20:00.528Z,33.26
2022-11-17T08:20:15.517Z,33.30
2022-11-17T08:20:30.552Z,33.25
2022-11-17T08:20:45.521Z,33.26
2022-11-17T08:21:00.507Z,33.26
2022-11-17T08:21:15.522Z,33.25
2022-11-17T08:21:30.501Z,33.25
2022-11-17T08:21:45.552Z,33.26
2022-11-17T08:22:00.522Z,33.31
2022-11-17T08:22:15.493Z,33.28
2022-11-17T08:22:30.488Z,33.31
2022-11-17T08:22:45.517Z,33.29
2022-11-17T08:23:00.759Z,33.29
2022-11-17T08:23:22.761Z,33.34
2022-11-17T08:23:30.670Z,33.32
2022-11-17T08:23:45.674Z,33.34
2022-11-17T08:24:00.643Z,33.30
2022-11-17T08:24:15.752Z,33.33
2022-11-17T08:24:32.494Z,33.32
2022-11-17T08:24:46.452Z,33.35
2022-11-17T08:25:00.554Z,33.31
2022-11-17T08:25:15.503Z,33.30
2022-11-17T08:25:30.469Z,33.35
2022-11-17T08:25:45.490Z,33.37
2022-11-17T08:26:00.477Z,33.38
2022-11-17T08:26:15.433Z,33.37
2022-11-17T08:26:30.510Z,33.40
2022-11-17T08:26:45.491Z,35.71
2022-11-17T08:27:00.440Z,34.01
2022-11-17T08:27:15.487Z,33.71
2022-11-17T08:27:30.473Z,32.76
2022-11-17T08:27:45.467Z,32.71
2022-11-17T08:28:00.453Z,32.55
2022-11-17T08:28:15.497Z,32.55
2022-11-17T08:28:30.446Z,32.65
2022-11-17T08:28:45.476Z,31.71
2022-11-17T08:29:00.447Z,31.67
2022-11-17T08:29:15.436Z,31.66
2022-11-17T08:29:30.462Z,31.40
2022-11-17T08:29:45.463Z,31.07
2022-11-17T08:30:00.473Z,31.20
2022-11-17T08:30:15.456Z,31.38
2022-11-17T08:30:30.456Z,31.39
2022-11-17T08:30:45.443Z,31.65
2022-11-17T08:31:00.435Z,31.55
2022-11-17T08:31:15.454Z,30.73
2022-11-17T08:31:30.542Z,30.61
2022-11-17T08:31:45.523Z,31.06
2022-11-17T08:32:00.467Z,30.60
2022-11-17T08:32:15.422Z,30.79
2022-11-17T08:32:30.466Z,30.74
2022-11-17T08:32:45.453Z,31.11
2022-11-17T08:33:00.424Z,31.25
2022-11-17T08:33:15.450Z,30.10
2022-11-17T08:33:30.464Z,30.59
2022-11-17T08:33:45.439Z,30.66
2022-11-17T08:34:00.416Z,30.89
2022-11-17T08:34:15.413Z,31.04
2022-11-17T08:34:30.424Z,30.54
2022-11-17T08:34:45.448Z,30.60
2022-11-17T08:35:00.432Z,30.32
2022-11-17T08:35:15.431Z,30.65
2022-11-17T08:35:34.353Z,30.94
2022-11-17T08:35:46.459Z,30.59
2022-11-17T08:36:00.394Z,30.97
2022-11-17T08:36:15.430Z,30.38
2022-11-17T08:36:30.692Z,30.68
2022-11-17T08:36:45.403Z,30.85
2022-11-17T08:37:00.427Z,31.21
2022-11-17T08:37:15.443Z,31.18
2022-11-17T08:37:30.427Z,31.19
2022-11-17T08:37:45.432Z,30.81
2022-11-17T08:38:00.436Z,30.27
2022-11-17T08:38:15.450Z,30.30
2022-11-17T08:38:30.438Z,30.83
2022-11-17T08:38:45.368Z,30.72
2022-11-17T08:39:00.446Z,30.91
2022-11-17T08:39:15.428Z,30.40
2022-11-17T08:39:30.413Z,30.47
2022-11-17T08:39:45.378Z,30.57
2022-11-17T08:40:00.418Z,30.42
2022-11-17T08:40:15.374Z,30.47
2022-11-17T08:40:30.415Z,30.67
2022-11-17T08:40:45.413Z,30.73
2022-11-17T08:41:00.473Z,30.85
2022-11-17T08:41:15.405Z,30.69
2022-11-17T08:41:30.386Z,30.67
2022-11-17T08:41:45.375Z,30.27
2022-11-17T08:42:00.362Z,30.41
2022-11-17T08:42:15.532Z,30.29
2022-11-17T08:42:30.379Z,30.47
2022-11-17T08:42:45.387Z,30.22
2022-11-17T08:43:01.543Z,30.23
2022-11-17T08:43:15.420Z,30.66
2022-11-17T08:43:30.364Z,30.62
2022-11-17T08:43:45.609Z,30.59
2022-11-17T08:44:00.396Z,30.73
2022-11-17T08:44:15.470Z,30.58
2022-11-17T08:44:30.675Z,30.24
2022-11-17T08:44:45.367Z,30.56
2022-11-17T08:45:00.367Z,30.33
2022-11-17T08:45:15.387Z,29.80
2022-11-17T08:45:30.362Z,29.80
2022-11-17T08:45:45.351Z,30.14
2022-11-17T08:46:00.387Z,30.33
2022-11-17T08:46:15.343Z,30.43
2022-11-17T08:46:30.339Z,30.47
2022-11-17T08:46:45.423Z,30.40
2022-11-17T08:47:00.502Z,30.34
2022-11-17T08:47:15.348Z,30.31
2022-11-17T08:47:30.323Z,29.96
2022-11-17T08:47:45.381Z,29.87
2022-11-17T08:48:00.325Z,29.99
2022-11-17T08:48:15.333Z,29.91
2022-11-17T08:48:30.332Z,29.80
2022-11-17T08:48:45.327Z,29.84
2022-11-17T08:49:00.323Z,30.30
2022-11-17T08:49:15.336Z,30.01
2022-11-17T08:49:30.328Z,30.29
2022-11-17T08:49:45.313Z,30.21
2022-11-17T08:50:00.348Z,30.49
2022-11-17T08:50:15.332Z,30.52
2022-11-17T08:50:30.317Z,30.69
2022-11-17T08:50:46.016Z,30.74
2022-11-17T08:51:00.349Z,30.69
2022-11-17T08:51:15.345Z,30.29
2022-11-17T08:51:30.323Z,30.41
2022-11-17T08:51:45.287Z,30.00
2022-11-17T08:52:00.344Z,30.26
2022-11-17T08:52:15.316Z,29.59
2022-11-17T08:52:30.317Z,30.11
2022-11-17T08:52:45.318Z,30.34
